Kingman, AZ

3:35 AM MST on December 25, 2014 (GMT -0700)
Southeast Kingman | Change Station
CLOSE
Current Station
Personal Weather Station
Location: Kingman, AZ
Elevation: 3584 ft
Nearby Weather Stations

Elev 3584 ft 35.20 °N, 114.00 °W | Updated 1 minute ago

Partly Cloudy
Partly Cloudy
47.8 °F
Feels Like 44 °F
N
8.0
Wind Variable Wind from SSE
Gusts 12.0 mph

Today
High -- | Low -- °F
--% Chance of Precip.
Yesterday
High -- | Low -- °F
Precip. -- in
7:42 AM 5:30 PM
Waxing Crescent, 15% visible
Pressure 29.56 in
Visibility -9999.0 miles
Clouds Clear
Windchill 44 °F
Dew Point 18 °F
Humidity 30%
Rainfall 0.00 in
Snow Depth Not available.
UV 0 out of 12
Pollen 2.20 out of 12
Air Quality Not available.
Flu Activity Not available.
METAR KIGM 250951Z AUTO 22014G23KT CLR 08/M11 A2967 RMK AO2 SLP010 T00831111 $

More Conditions Fewer Conditions

Pressure 29.56 in
Visibility -9999.0 miles
Clouds Clear
Windchill 44 °F
Dew Point 18 °F
Humidity 30%
Rainfall 0.00 in
Snow Depth Not available.
UV 0 out of 12
Pollen 2.20 out of 12
Air Quality Not available.
Flu Activity Not available.
METAR KIGM 250951Z AUTO 22014G23KT CLR 08/M11 A2967 RMK AO2 SLP010 T00831111 $

More Conditions Fewer Conditions

10-Day Weather Forecast

Almanac

Astronomy

Dec. 25, 2014 Rise Set
Actual Time
Civil Twilight
Nautical Twilight
Astronomical Twilight
Moon
Length of Visible Light
Length of Day
Tomorrow will be .
, % of the Moon is Illuminated

Today's Extremes

State Highs State Lows

Community

WunderPhotos

Upload Photos

1,780,254 photos uploaded!

WunderBlogs® & News

Nearby

Air Quality

  Air Quality AQ Index Pollutant
Not available.

Snow Depth

Station Depth Elevation

Earthquake Activity

City Distance Mag. Time & Date
Minimum magnitude displayed is 2.5.

Coastal Water Temperatures

Place Temperature

Nearby Weather Stations